createdAt,value
2023-05-23T00:02:38.167Z,18.87
2023-05-23T00:07:59.186Z,18.81
2023-05-23T00:13:19.926Z,18.85
2023-05-23T00:18:43.171Z,18.87
2023-05-23T00:24:04.770Z,18.92
2023-05-23T00:29:25.907Z,18.83
2023-05-23T00:34:46.871Z,18.70
2023-05-23T00:40:08.427Z,18.72
2023-05-23T00:45:29.129Z,18.46
2023-05-23T00:50:50.515Z,18.31
2023-05-23T00:56:12.423Z,18.20
2023-05-23T01:01:33.606Z,18.19
2023-05-23T01:06:57.793Z,18.04
2023-05-23T01:12:43.345Z,18.06
2023-05-23T01:18:10.244Z,18.16
2023-05-23T01:24:03.609Z,18.24
2023-05-23T01:29:28.505Z,18.21
2023-05-23T01:34:53.010Z,18.12
2023-05-23T01:40:13.926Z,18.11
2023-05-23T01:45:35.063Z,18.25
2023-05-23T01:50:57.279Z,18.13
2023-05-23T01:56:20.255Z,18.05
2023-05-23T02:01:41.945Z,17.99
2023-05-23T02:07:02.927Z,17.95
2023-05-23T02:12:23.700Z,17.92
2023-05-23T02:17:44.390Z,18.00
2023-05-23T02:23:05.451Z,17.94
2023-05-23T02:28:26.269Z,17.86
2023-05-23T02:33:47.329Z,17.95
2023-05-23T02:39:08.598Z,17.94
2023-05-23T02:44:29.328Z,17.95
2023-05-23T02:49:51.667Z,17.83
2023-05-23T02:55:12.446Z,17.72
2023-05-23T03:00:38.612Z,17.55
2023-05-23T03:06:00.227Z,17.29
2023-05-23T03:11:22.822Z,17.11
2023-05-23T03:16:43.926Z,17.02
2023-05-23T03:22:05.073Z,16.91
2023-05-23T03:27:25.748Z,16.91
2023-05-23T03:32:47.001Z,17.01
2023-05-23T03:38:08.168Z,17.01
2023-05-23T03:43:28.884Z,17.02
2023-05-23T03:48:50.083Z,17.10
2023-05-23T03:54:11.470Z,17.22
2023-05-23T03:59:33.255Z,17.19
2023-05-23T04:04:57.182Z,17.27
2023-05-23T04:10:19.121Z,17.33
2023-05-23T04:15:41.667Z,17.38
2023-05-23T04:21:06.068Z,17.48
2023-05-23T04:26:31.316Z,17.49
2023-05-23T04:31:52.573Z,17.61
2023-05-23T04:37:14.703Z,17.74
2023-05-23T04:42:36.171Z,18.07
2023-05-23T04:48:06.693Z,18.32
2023-05-23T04:53:35.095Z,18.18
2023-05-23T04:58:56.319Z,18.09
2023-05-23T05:04:19.160Z,17.87
2023-05-23T05:09:40.448Z,17.93
2023-05-23T05:15:04.070Z,18.50
2023-05-23T05:20:25.849Z,19.08
2023-05-23T05:25:46.963Z,18.80
2023-05-23T05:31:08.300Z,18.66
2023-05-23T05:36:32.019Z,19.15
2023-05-23T05:41:52.891Z,19.29
2023-05-23T05:47:14.708Z,18.86
2023-05-23T05:52:38.985Z,18.76
2023-05-23T05:58:01.030Z,19.25
2023-05-23T06:03:27.996Z,20.01
2023-05-23T06:08:50.059Z,20.09
2023-05-23T06:14:11.290Z,20.16
2023-05-23T06:19:35.960Z,20.58
2023-05-23T06:24:57.284Z,20.26
2023-05-23T06:30:18.538Z,20.11
2023-05-23T06:35:39.713Z,19.79
2023-05-23T06:41:01.936Z,19.61
2023-05-23T06:46:24.212Z,19.48
2023-05-23T06:51:45.583Z,19.28
2023-05-23T06:57:06.548Z,19.01
2023-05-23T07:02:28.432Z,18.59
2023-05-23T07:07:49.671Z,18.49
2023-05-23T07:13:11.478Z,18.39
2023-05-23T07:18:32.628Z,18.40
2023-05-23T07:23:53.444Z,18.48
2023-05-23T07:29:16.567Z,18.74
2023-05-23T07:34:40.023Z,18.68
2023-05-23T07:40:01.365Z,18.81
2023-05-23T07:45:22.591Z,19.03
2023-05-23T07:50:43.772Z,19.13
2023-05-23T07:56:06.014Z,19.44
2023-05-23T08:01:31.466Z,19.90
2023-05-23T08:07:05.038Z,20.22
2023-05-23T08:12:39.648Z,20.49
2023-05-23T08:18:06.326Z,20.51
2023-05-23T08:23:27.137Z,20.38
2023-05-23T08:28:48.338Z,20.39
2023-05-23T08:34:09.751Z,20.44
2023-05-23T08:39:32.336Z,20.45
2023-05-23T08:45:13.155Z,20.24
2023-05-23T08:50:35.355Z,20.04
2023-05-23T08:55:59.205Z,20.06
2023-05-23T09:01:27.934Z,20.09
2023-05-23T09:06:52.439Z,20.14
2023-05-23T09:12:13.622Z,20.13
2023-05-23T09:17:36.380Z,20.15
2023-05-23T09:22:57.202Z,20.18
2023-05-23T09:28:18.502Z,20.25
2023-05-23T09:33:48.147Z,20.31
2023-05-23T09:39:12.241Z,20.33
2023-05-23T09:44:42.297Z,20.19
2023-05-23T09:50:04.410Z,19.90
2023-05-23T09:55:25.961Z,19.58
2023-05-23T10:00:50.690Z,19.45
2023-05-23T10:06:21.464Z,19.13
2023-05-23T10:12:00.536Z,18.66
2023-05-23T10:17:37.369Z,18.53
2023-05-23T10:23:00.808Z,18.47
2023-05-23T10:28:21.976Z,18.35
2023-05-23T10:33:50.662Z,18.42
2023-05-23T10:39:36.700Z,18.34
2023-05-23T10:45:23.491Z,18.36
2023-05-23T10:50:46.816Z,18.35
2023-05-23T10:56:09.184Z,18.42
2023-05-23T11:01:30.304Z,18.52
2023-05-23T11:06:51.049Z,18.79
2023-05-23T11:12:11.956Z,18.97
2023-05-23T11:17:33.919Z,19.04
2023-05-23T11:22:58.848Z,19.13
2023-05-23T11:28:20.466Z,19.24
2023-05-23T11:33:41.128Z,19.34
2023-05-23T11:39:04.383Z,19.25
2023-05-23T11:44:25.242Z,19.15
2023-05-23T11:49:47.499Z,18.89
2023-05-23T11:55:09.561Z,18.65
2023-05-23T12:00:30.574Z,18.65
2023-05-23T12:05:51.861Z,18.72
2023-05-23T12:11:13.883Z,18.88
2023-05-23T12:16:35.725Z,19.01
2023-05-23T12:21:56.661Z,19.12
2023-05-23T12:27:18.710Z,19.01
2023-05-23T12:32:41.528Z,19.06
2023-05-23T12:38:02.655Z,19.15
2023-05-23T12:43:23.385Z,19.29
2023-05-23T12:48:44.119Z,19.38
2023-05-23T12:54:05.061Z,19.45
2023-05-23T12:59:25.706Z,19.60
2023-05-23T13:04:46.556Z,19.74
2023-05-23T13:10:07.860Z,19.66
2023-05-23T13:15:28.467Z,19.73
2023-05-23T13:20:49.376Z,19.83
2023-05-23T13:26:10.104Z,19.85
2023-05-23T13:31:31.288Z,19.88
2023-05-23T13:36:52.643Z,19.93
2023-05-23T13:42:13.566Z,19.87
2023-05-23T13:47:34.630Z,19.77
2023-05-23T13:52:55.290Z,19.69
2023-05-23T13:58:16.176Z,19.76
2023-05-23T14:03:37.216Z,19.90
2023-05-23T14:08:57.947Z,20.00
2023-05-23T14:14:18.786Z,19.99
2023-05-23T14:19:39.836Z,19.90
2023-05-23T14:25:00.786Z,19.84
2023-05-23T14:30:21.541Z,19.84
2023-05-23T14:35:43.160Z,19.87
2023-05-23T14:41:04.235Z,19.88
2023-05-23T14:46:24.954Z,19.77
2023-05-23T14:51:50.985Z,19.76
2023-05-23T14:57:12.634Z,19.80
2023-05-23T15:02:33.496Z,19.74
2023-05-23T15:07:54.209Z,19.70
2023-05-23T15:13:14.988Z,19.69
2023-05-23T15:18:41.473Z,19.62
2023-05-23T15:24:03.406Z,19.60
2023-05-23T15:29:25.293Z,19.54
2023-05-23T15:34:46.027Z,19.38
2023-05-23T15:40:07.424Z,19.25
2023-05-23T15:45:28.140Z,19.11
2023-05-23T15:50:49.057Z,19.04
2023-05-23T15:56:09.860Z,19.03
2023-05-23T16:01:30.930Z,19.08
2023-05-23T16:06:51.785Z,19.04
2023-05-23T16:12:12.634Z,18.88
2023-05-23T16:17:33.430Z,18.83
2023-05-23T16:22:54.243Z,18.73
2023-05-23T16:28:17.928Z,18.59
2023-05-23T16:33:38.911Z,18.46
2023-05-23T16:38:59.817Z,18.34
2023-05-23T16:44:20.865Z,18.27
2023-05-23T16:49:41.917Z,18.18
2023-05-23T16:55:04.011Z,18.11
2023-05-23T17:00:26.792Z,18.06
2023-05-23T17:05:47.948Z,17.88
2023-05-23T17:11:08.648Z,17.82
2023-05-23T17:16:33.368Z,17.66
2023-05-23T17:21:54.643Z,17.44
2023-05-23T17:27:15.622Z,17.39
2023-05-23T17:32:36.613Z,17.31
2023-05-23T17:37:58.397Z,17.22
2023-05-23T17:43:19.156Z,17.08
2023-05-23T17:54:06.227Z,17.09
2023-05-23T17:59:28.053Z,17.08
2023-05-23T18:04:49.352Z,17.10
2023-05-23T18:10:10.879Z,17.16
2023-05-23T18:15:31.639Z,17.09
2023-05-23T18:20:52.798Z,17.08
2023-05-23T18:26:13.714Z,17.06
2023-05-23T18:31:34.477Z,16.80
2023-05-23T18:36:55.669Z,16.65
2023-05-23T18:42:16.679Z,16.48
2023-05-23T18:47:37.839Z,16.40
2023-05-23T18:52:58.860Z,16.45
2023-05-23T18:58:19.792Z,16.40
2023-05-23T19:03:41.322Z,16.28
2023-05-23T19:09:02.368Z,16.19
2023-05-23T19:14:24.129Z,16.23
2023-05-23T19:19:45.213Z,16.17
2023-05-23T19:25:07.568Z,16.03
2023-05-23T19:30:28.516Z,15.92
2023-05-23T19:35:49.374Z,15.73
2023-05-23T19:41:10.358Z,15.60
2023-05-23T19:46:31.470Z,15.55
2023-05-23T19:51:52.146Z,15.60
2023-05-23T19:57:12.973Z,15.64
2023-05-23T20:02:34.042Z,15.55
2023-05-23T20:07:55.051Z,15.53
2023-05-23T20:13:15.978Z,15.44
2023-05-23T20:18:36.926Z,15.42
2023-05-23T20:23:57.810Z,15.34
2023-05-23T20:29:18.554Z,15.23
2023-05-23T20:34:39.484Z,15.12
2023-05-23T20:40:00.740Z,15.02
2023-05-23T20:45:21.789Z,14.97
2023-05-23T20:50:44.150Z,14.86
2023-05-23T20:56:06.113Z,14.85
2023-05-23T21:01:27.832Z,14.71
2023-05-23T21:06:49.890Z,14.69
2023-05-23T21:12:10.675Z,14.56
2023-05-23T21:17:31.320Z,14.50
2023-05-23T21:22:52.126Z,14.37
2023-05-23T21:28:12.771Z,14.38
2023-05-23T21:33:34.139Z,14.30
2023-05-23T21:38:57.937Z,14.29
2023-05-23T21:44:18.931Z,14.39
2023-05-23T21:49:40.497Z,14.36
2023-05-23T21:55:01.381Z,14.40
2023-05-23T22:00:22.761Z,14.37
2023-05-23T22:05:43.885Z,14.36
2023-05-23T22:11:05.012Z,14.32
2023-05-23T22:16:26.145Z,14.41
2023-05-23T22:21:47.727Z,14.33
2023-05-23T22:27:08.852Z,14.28
2023-05-23T22:32:29.569Z,14.22
2023-05-23T22:37:50.298Z,14.15
2023-05-23T22:43:11.375Z,13.92
2023-05-23T22:48:33.950Z,13.91
2023-05-23T22:53:55.126Z,13.91
2023-05-23T22:59:15.809Z,13.88
2023-05-23T23:04:38.223Z,13.74
2023-05-23T23:09:58.811Z,13.69
2023-05-23T23:15:20.164Z,13.56
2023-05-23T23:20:41.642Z,13.49
2023-05-23T23:26:02.899Z,13.62
2023-05-23T23:31:23.573Z,13.69
2023-05-23T23:36:44.247Z,13.69
2023-05-23T23:42:05.113Z,13.59
2023-05-23T23:47:26.188Z,13.52
2023-05-23T23:52:47.233Z,13.52
2023-05-23T23:58:08.244Z,13.57
